createdAt,value
2023-02-19T00:03:54.506Z,75.53
2023-02-19T00:09:16.697Z,75.27
2023-02-19T00:14:37.919Z,77.08
2023-02-19T00:19:59.249Z,78.17
2023-02-19T00:25:20.497Z,78.07
2023-02-19T00:30:41.565Z,78.29
2023-02-19T00:36:03.336Z,78.36
2023-02-19T00:41:24.616Z,78.71
2023-02-19T00:46:47.384Z,78.04
2023-02-19T00:52:08.106Z,78.82
2023-02-19T00:57:28.915Z,78.44
2023-02-19T01:02:49.678Z,78.58
2023-02-19T01:08:10.467Z,78.54
2023-02-19T01:13:31.613Z,78.41
2023-02-19T01:18:52.365Z,78.78
2023-02-19T01:24:13.604Z,78.65
2023-02-19T01:29:34.626Z,78.55
2023-02-19T01:34:55.990Z,78.56
2023-02-19T01:40:16.812Z,78.53
2023-02-19T01:45:39.508Z,78.33
2023-02-19T01:51:04.942Z,78.64
2023-02-19T01:56:25.940Z,78.62
2023-02-19T02:01:46.977Z,78.18
2023-02-19T02:07:28.115Z,78.43
2023-02-19T02:12:49.519Z,78.49
2023-02-19T02:18:30.970Z,77.84
2023-02-19T02:24:16.200Z,78.21
2023-02-19T02:29:56.053Z,78.41
2023-02-19T02:35:20.394Z,77.95
2023-02-19T02:40:43.139Z,78.41
2023-02-19T02:46:05.476Z,78.35
2023-02-19T02:51:34.198Z,78.24
2023-02-19T02:57:01.689Z,78.41
2023-02-19T03:02:28.200Z,78.26
2023-02-19T03:07:59.613Z,78.13
2023-02-19T03:13:52.876Z,78.46
2023-02-19T03:19:20.929Z,78.27
2023-02-19T03:25:04.377Z,78.10
2023-02-19T03:30:29.578Z,78.01
2023-02-19T03:35:53.593Z,78.31
2023-02-19T03:41:35.963Z,77.98
2023-02-19T03:47:17.987Z,78.24
2023-02-19T03:52:43.287Z,77.82
2023-02-19T03:58:15.322Z,78.00
2023-02-19T04:03:47.090Z,77.63
2023-02-19T04:09:09.980Z,77.74
2023-02-19T04:14:39.012Z,77.52
2023-02-19T04:20:00.250Z,77.37
2023-02-19T04:25:21.138Z,77.25
2023-02-19T04:30:42.712Z,76.97
2023-02-19T04:36:03.790Z,76.91
2023-02-19T04:41:25.000Z,76.38
2023-02-19T04:46:45.613Z,76.13
2023-02-19T04:52:06.445Z,75.57
2023-02-19T04:57:27.257Z,76.09
2023-02-19T05:02:48.443Z,75.70
2023-02-19T05:08:09.517Z,75.83
2023-02-19T05:13:30.946Z,75.54
2023-02-19T05:18:52.002Z,75.36
2023-02-19T05:24:12.785Z,75.32
2023-02-19T05:29:40.439Z,75.42
2023-02-19T05:35:01.809Z,75.19
2023-02-19T05:40:22.509Z,75.00
2023-02-19T05:45:43.564Z,75.24
2023-02-19T05:51:05.613Z,74.88
2023-02-19T05:56:33.897Z,75.24
2023-02-19T06:01:55.388Z,75.26
2023-02-19T06:07:16.612Z,75.07
2023-02-19T06:12:37.953Z,74.95
2023-02-19T06:17:59.114Z,74.79
2023-02-19T06:23:19.913Z,74.45
2023-02-19T06:28:41.210Z,74.12
2023-02-19T06:34:04.891Z,73.91
2023-02-19T06:39:26.384Z,73.83
2023-02-19T06:44:47.343Z,73.37
2023-02-19T06:50:08.238Z,71.55
2023-02-19T06:55:29.069Z,71.43
2023-02-19T07:00:49.875Z,71.30
2023-02-19T07:06:11.142Z,72.02
2023-02-19T07:11:33.469Z,71.40
2023-02-19T07:16:54.258Z,70.92
2023-02-19T07:22:14.990Z,70.44
2023-02-19T07:27:35.844Z,70.24
2023-02-19T07:32:56.641Z,69.58
2023-02-19T07:38:18.390Z,69.43
2023-02-19T07:43:39.453Z,69.50
2023-02-19T07:49:00.545Z,69.48
2023-02-19T07:54:21.295Z,69.06
2023-02-19T07:59:42.086Z,68.82
2023-02-19T08:05:05.055Z,69.37
2023-02-19T08:10:45.226Z,70.45
2023-02-19T08:16:21.752Z,72.33
2023-02-19T08:21:48.029Z,74.91
2023-02-19T08:27:09.172Z,74.32
2023-02-19T08:32:30.148Z,74.78
2023-02-19T08:37:51.333Z,75.05
2023-02-19T08:43:13.633Z,76.77
2023-02-19T08:48:34.732Z,75.34
2023-02-19T08:53:56.027Z,75.86
2023-02-19T08:59:17.247Z,75.53
2023-02-19T09:04:39.059Z,74.45
2023-02-19T09:10:03.733Z,74.23
2023-02-19T09:15:24.715Z,74.08
2023-02-19T09:20:46.075Z,74.35
2023-02-19T09:26:09.453Z,74.50
2023-02-19T09:31:30.767Z,73.71
2023-02-19T09:36:51.727Z,73.77
2023-02-19T09:42:18.039Z,73.27
2023-02-19T09:47:39.122Z,73.26
2023-02-19T09:53:03.213Z,72.27
2023-02-19T09:58:27.384Z,73.15
2023-02-19T10:03:48.602Z,72.46
2023-02-19T10:09:21.429Z,72.34
2023-02-19T10:14:45.182Z,72.62
2023-02-19T10:20:06.693Z,71.91
2023-02-19T10:25:27.503Z,69.33
2023-02-19T10:30:53.208Z,69.08
2023-02-19T10:36:36.494Z,68.83
2023-02-19T10:41:58.805Z,69.26
2023-02-19T10:47:21.856Z,69.29
2023-02-19T10:52:43.033Z,69.72
2023-02-19T10:58:24.060Z,70.28
2023-02-19T11:03:45.042Z,70.27
2023-02-19T11:09:07.151Z,70.30
2023-02-19T11:14:28.104Z,70.87
2023-02-19T11:19:51.586Z,71.08
2023-02-19T11:25:15.225Z,71.21
2023-02-19T11:30:43.154Z,71.40
2023-02-19T11:36:16.514Z,70.48
2023-02-19T11:42:22.699Z,70.65
2023-02-19T11:47:58.262Z,70.85
2023-02-19T11:53:27.581Z,70.50
2023-02-19T11:58:53.302Z,69.81
2023-02-19T12:04:51.811Z,69.70
2023-02-19T12:10:28.721Z,69.87
2023-02-19T12:16:26.776Z,70.17
2023-02-19T12:22:15.275Z,69.29
2023-02-19T12:27:48.455Z,69.15
2023-02-19T12:33:18.634Z,68.89
2023-02-19T12:38:49.310Z,67.61
2023-02-19T12:44:22.836Z,67.39
2023-02-19T12:49:47.267Z,66.64
2023-02-19T12:55:29.006Z,67.29
2023-02-19T13:00:51.114Z,67.11
2023-02-19T13:06:36.782Z,65.04
2023-02-19T13:12:01.989Z,65.65
2023-02-19T13:17:32.005Z,65.35
2023-02-19T13:23:14.282Z,65.90
2023-02-19T13:29:00.164Z,65.21
2023-02-19T13:34:47.866Z,65.64
2023-02-19T13:40:37.408Z,65.57
2023-02-19T13:46:00.288Z,65.03
2023-02-19T13:51:24.095Z,65.73
2023-02-19T13:56:45.326Z,65.26
2023-02-19T14:02:11.610Z,65.69
2023-02-19T14:07:50.998Z,64.92
2023-02-19T14:13:11.689Z,64.68
2023-02-19T14:18:42.626Z,63.91
2023-02-19T14:24:03.808Z,63.17
2023-02-19T14:29:24.884Z,63.91
2023-02-19T14:34:46.129Z,63.79
2023-02-19T14:40:07.644Z,64.66
2023-02-19T14:45:28.577Z,63.57
2023-02-19T14:50:51.204Z,62.69
2023-02-19T14:56:27.935Z,63.33
2023-02-19T15:01:55.711Z,62.57
2023-02-19T15:07:21.734Z,62.31
2023-02-19T15:12:48.000Z,61.32
2023-02-19T15:18:18.234Z,62.22
2023-02-19T15:23:39.204Z,62.56
2023-02-19T15:29:01.106Z,62.86
2023-02-19T15:34:26.626Z,63.21
2023-02-19T15:39:48.395Z,62.81
2023-02-19T15:45:41.771Z,62.33
2023-02-19T15:51:09.480Z,61.49
2023-02-19T15:56:31.922Z,61.95
2023-02-19T16:01:52.784Z,62.04
2023-02-19T16:07:27.605Z,61.68
2023-02-19T16:13:01.586Z,61.70
2023-02-19T16:18:22.645Z,61.65
2023-02-19T16:23:43.911Z,61.70
2023-02-19T16:29:04.759Z,61.90
2023-02-19T16:34:55.192Z,62.32
2023-02-19T16:40:16.859Z,62.30
2023-02-19T16:45:38.075Z,62.51
2023-02-19T16:50:59.602Z,62.64
2023-02-19T16:56:23.012Z,62.69
2023-02-19T17:01:44.001Z,62.84
2023-02-19T17:07:05.043Z,62.89
2023-02-19T17:12:26.213Z,63.13
2023-02-19T17:17:47.177Z,62.93
2023-02-19T17:23:08.192Z,62.95
2023-02-19T17:28:29.070Z,63.21
2023-02-19T17:33:50.671Z,63.19
2023-02-19T17:39:15.297Z,63.12
2023-02-19T17:44:36.183Z,63.35
2023-02-19T17:49:57.729Z,63.22
2023-02-19T17:55:18.723Z,63.32
2023-02-19T18:00:39.971Z,63.49
2023-02-19T18:06:01.357Z,63.19
2023-02-19T18:11:23.042Z,63.39
2023-02-19T18:16:50.689Z,63.38
2023-02-19T18:22:11.965Z,63.81
2023-02-19T18:27:33.209Z,64.02
2023-02-19T18:32:54.318Z,64.19
2023-02-19T18:38:15.985Z,64.32
2023-02-19T18:43:37.148Z,64.10
2023-02-19T18:48:58.466Z,63.84
2023-02-19T18:54:24.203Z,64.21
2023-02-19T18:59:45.763Z,64.38
2023-02-19T19:05:07.385Z,64.69
2023-02-19T19:10:29.048Z,64.50
2023-02-19T19:15:51.157Z,64.55
2023-02-19T19:21:14.877Z,64.33
2023-02-19T19:26:36.016Z,64.77
2023-02-19T19:31:57.393Z,64.73
2023-02-19T19:37:18.701Z,64.65
2023-02-19T19:42:39.762Z,64.36
2023-02-19T19:48:00.665Z,64.45
2023-02-19T19:53:21.914Z,64.77
2023-02-19T19:58:43.326Z,64.86
2023-02-19T20:04:04.745Z,65.14
2023-02-19T20:09:29.150Z,64.98
2023-02-19T20:14:50.449Z,65.20
2023-02-19T20:20:12.097Z,65.43
2023-02-19T20:25:33.493Z,65.46
2023-02-19T20:30:54.758Z,66.03
2023-02-19T20:36:15.873Z,65.88
2023-02-19T20:41:37.104Z,65.88
2023-02-19T20:46:58.937Z,66.08
2023-02-19T20:52:20.971Z,65.54
2023-02-19T20:57:42.381Z,66.01
2023-02-19T21:03:03.575Z,65.90
2023-02-19T21:08:25.392Z,65.76
2023-02-19T21:13:46.655Z,66.23
2023-02-19T21:19:07.930Z,66.52
2023-02-19T21:24:29.138Z,66.57
2023-02-19T21:29:49.975Z,66.33
2023-02-19T21:35:10.913Z,66.52
2023-02-19T21:40:32.937Z,66.97
2023-02-19T21:45:53.874Z,66.98
2023-02-19T21:51:15.443Z,66.79
2023-02-19T21:56:37.417Z,66.88
2023-02-19T22:01:58.346Z,67.14
2023-02-19T22:07:20.277Z,66.80
2023-02-19T22:12:41.555Z,67.21
2023-02-19T22:18:02.703Z,66.93
2023-02-19T22:23:24.271Z,66.86
2023-02-19T22:28:46.093Z,66.70
2023-02-19T22:34:07.419Z,66.98
2023-02-19T22:39:28.512Z,66.78
2023-02-19T22:44:49.386Z,66.69
2023-02-19T22:50:20.079Z,66.45
2023-02-19T22:55:41.001Z,66.52
2023-02-19T23:01:01.871Z,66.60
2023-02-19T23:06:30.381Z,66.56
2023-02-19T23:11:51.661Z,66.58
2023-02-19T23:17:12.664Z,66.50
2023-02-19T23:22:35.252Z,66.40
2023-02-19T23:27:56.118Z,66.59
2023-02-19T23:33:18.045Z,66.63
2023-02-19T23:38:39.002Z,66.26
2023-02-19T23:43:59.856Z,66.57
2023-02-19T23:49:20.774Z,66.33
2023-02-19T23:54:42.138Z,66.54
